ADDS METAR Data INFO
IDs: Format: Raw Decoded Include TAF

Data at: 0838 UTC 21 Oct 2017

KOKV 210835Z AUTO 00000KT 10SM CLR 06/05 A3028 RMK AO2
KOKV 210815Z AUTO 00000KT 10SM CLR 06/06 A3028 RMK AO2
KOKV 210755Z AUTO 00000KT 10SM CLR 06/05 A3028 RMK AO2
KOKV 210735Z AUTO 00000KT 10SM CLR 06/05 A3028 RMK AO2
KOKV 210715Z AUTO 00000KT 10SM CLR 07/06 A3028 RMK AO2
KOKV 210655Z AUTO 29003KT 10SM CLR 07/06 A3028 RMK AO2
KOKV 210635Z AUTO 30003KT 10SM CLR 08/06 A3028 RMK AO2
KOKV 210615Z AUTO 00000KT 10SM CLR 08/06 A3028 RMK AO2
KOKV 210555Z AUTO 00000KT 10SM CLR 08/06 A3028 RMK AO2
KOKV 210535Z AUTO 00000KT 10SM CLR 07/06 A3028 RMK AO2
KOKV 210515Z AUTO 00000KT 10SM CLR 07/06 A3028 RMK AO2
KOKV 210455Z AUTO 16003KT 10SM CLR 07/06 A3028 RMK AO2
KOKV 210435Z AUTO 00000KT 10SM CLR 07/06 A3027 RMK AO2
KOKV 210415Z AUTO 00000KT 10SM CLR 08/06 A3028 RMK AO2
KOKV 210355Z AUTO 00000KT 10SM CLR 08/06 A3027 RMK AO2
KOKV 210335Z AUTO 00000KT 10SM CLR 08/06 A3027 RMK AO2
KOKV 210315Z AUTO 29003KT 10SM CLR 09/07 A3027 RMK AO2
KOKV 210255Z AUTO 00000KT 10SM CLR 10/07 A3026 RMK AO2
KOKV 210235Z AUTO 00000KT 10SM CLR 09/06 A3025 RMK AO2
KOKV 210215Z AUTO 00000KT 10SM CLR 10/07 A3025 RMK AO2
KOKV 210155Z AUTO 00000KT 10SM CLR 11/07 A3025 RMK AO2
KOKV 210135Z AUTO 00000KT 10SM CLR 12/07 A3025 RMK AO2
KOKV 210115Z AUTO 00000KT 10SM CLR 12/07 A3024 RMK AO2
KOKV 210055Z AUTO 00000KT 10SM CLR 12/07 A3024 RMK AO2
KOKV 210035Z AUTO 00000KT 10SM CLR 12/07 A3024 RMK AO2
KOKV 210015Z AUTO 00000KT 10SM CLR 12/07 A3024 RMK AO2
KOKV 210000Z AUTO 00000KT 10SM CLR 12/07 A3024 RMK AO2
KOKV 202335Z AUTO 00000KT 10SM CLR 14/07 A3023 RMK AO2
KOKV 202315Z AUTO 00000KT 10SM CLR 15/07 A3022 RMK AO2
KOKV 202255Z AUTO 00000KT 10SM CLR 15/07 A3022 RMK AO2
KOKV 202235Z AUTO 00000KT 10SM CLR 15/07 A3021 RMK AO2
KOKV 202215Z AUTO 00000KT 10SM CLR 18/07 A3021 RMK AO2
KOKV 202155Z AUTO 00000KT 10SM CLR 21/06 A3021 RMK AO2
KOKV 202135Z AUTO 33003KT 10SM CLR 21/06 A3021 RMK AO2
KOKV 202115Z AUTO 31005KT 10SM CLR 21/06 A3021 RMK AO2
KOKV 202055Z AUTO 33004KT 10SM CLR 22/06 A3021 RMK AO2
KOKV 202035Z AUTO 30006KT 10SM CLR 22/06 A3021 RMK AO2
KOKV 202015Z AUTO 26005KT 10SM CLR 22/06 A3021 RMK AO2
KOKV 201955Z AUTO 33005KT 10SM CLR 22/06 A3022 RMK AO2
KOKV 201935Z AUTO 33003KT 10SM CLR 22/06 A3022 RMK AO2
KOKV 201915Z AUTO 33004KT 10SM CLR 22/05 A3022 RMK AO2
KOKV 201855Z AUTO 01006KT 10SM CLR 22/05 A3022 RMK AO2
KOKV 201835Z AUTO 31003KT 10SM CLR 22/06 A3022 RMK AO2
KOKV 201815Z AUTO 34003KT 10SM CLR 21/04 A3023 RMK AO2
KOKV 201755Z AUTO 35005KT 10SM CLR 21/04 A3024 RMK AO2
KOKV 201735Z AUTO 31008KT 10SM CLR 21/06 A3024 RMK AO2
KOKV 201715Z AUTO 32007KT 310V010 10SM CLR 21/06 A3025 RMK AO2
KOKV 201655Z AUTO 32007KT 10SM CLR 21/07 A3026 RMK AO2
KOKV 201635Z AUTO 32007G15KT 10SM CLR 20/07 A3027 RMK AO2
KOKV 201615Z AUTO 32008KT 10SM CLR 20/08 A3028 RMK AO2
KOKV 201555Z AUTO 32009KT 10SM CLR 20/09 A3028 RMK AO2
KOKV 201535Z AUTO 31009KT 10SM CLR 19/08 A3028 RMK AO2
KOKV 201515Z AUTO 30008KT 10SM CLR 19/09 A3028 RMK AO2
KOKV 201455Z AUTO 29006G09KT 10SM CLR 19/10 A3028 RMK AO2
KOKV 201435Z AUTO 31009KT 10SM CLR 18/10 A3028 RMK AO2
KOKV 201415Z AUTO 31008KT 10SM CLR 18/10 A3028 RMK AO2
KOKV 201355Z AUTO 27003KT 10SM CLR 17/10 A3028 RMK AO2
KOKV 201335Z AUTO 00000KT 10SM CLR 15/09 A3027 RMK AO2
KOKV 201315Z AUTO 16003KT 10SM CLR 12/08 A3027 RMK AO2
KOKV 201255Z AUTO 28003KT 10SM CLR 11/08 A3026 RMK AO2
KOKV 201235Z AUTO 00000KT 10SM CLR 11/08 A3025 RMK AO2
KOKV 201215Z AUTO 00000KT 10SM CLR 09/06 A3025 RMK AO2
KOKV 201155Z AUTO 14003KT 10SM CLR 08/05 A3025 RMK AO2
KOKV 201135Z AUTO 00000KT 10SM CLR 08/05 A3024 RMK AO2
KOKV 201115Z AUTO 00000KT 10SM CLR 07/05 A3023 RMK AO2
KOKV 201055Z AUTO 00000KT 10SM CLR 08/05 A3023 RMK AO2
KOKV 201035Z AUTO 00000KT 10SM CLR 07/05 A3023 RMK AO2
KOKV 201015Z AUTO 00000KT 10SM CLR 08/05 A3022 RMK AO2
KOKV 200955Z AUTO 29003KT 10SM CLR 08/05 A3021 RMK AO2
KOKV 200935Z AUTO 00000KT 10SM CLR 08/05 A3021 RMK AO2
KOKV 200915Z AUTO 00000KT 10SM CLR 08/05 A3020 RMK AO2
KOKV 200855Z AUTO 00000KT 10SM CLR 09/05 A3020 RMK AO2
KOKV 200835Z AUTO 26003KT 10SM CLR 09/05 A3019 RMK AO2
KOKV 200815Z AUTO 24006KT 10SM CLR 11/05 A3019 RMK AO2
KOKV 200755Z AUTO 23005KT 10SM CLR 10/05 A3019 RMK AO2
KOKV 200735Z AUTO 23003KT 10SM CLR 11/05 A3019 RMK AO2
KOKV 200715Z AUTO 00000KT 10SM CLR 11/05 A3019 RMK AO2
KOKV 200655Z AUTO 00000KT 10SM CLR 11/05 A3019 RMK AO2
KOKV 200635Z AUTO 21003KT 10SM CLR 09/06 A3018 RMK AO2
KOKV 200615Z AUTO 00000KT 10SM CLR 11/05 A3019 RMK AO2
KOKV 200555Z AUTO 00000KT 10SM CLR 11/05 A3019 RMK AO2
KOKV 200535Z AUTO 00000KT 10SM CLR 11/05 A3019 RMK AO2
KOKV 200515Z AUTO 00000KT 10SM CLR 10/05 A3018 RMK AO2
KOKV 200455Z AUTO 00000KT 10SM CLR 13/05 A3018 RMK AO2
KOKV 200435Z AUTO 26006KT 10SM CLR 16/04 A3018 RMK AO2
KOKV 200415Z AUTO 25006KT 10SM CLR 16/03 A3018 RMK AO2
KOKV 200355Z AUTO 29003KT 10SM CLR 11/05 A3018 RMK AO2
KOKV 200335Z AUTO 00000KT 10SM CLR 11/05 A3018 RMK AO2
KOKV 200315Z AUTO 00000KT 10SM CLR 11/05 A3018 RMK AO2
KOKV 200255Z AUTO 00000KT 10SM CLR 13/05 A3018 RMK AO2
KOKV 200235Z AUTO 12003KT 10SM CLR 11/05 A3018 RMK AO2
KOKV 200215Z AUTO 00000KT 10SM CLR 13/06 A3018 RMK AO2
KOKV 200200Z AUTO 02003KT 10SM CLR 14/06 A3017 RMK AO2
KOKV 200135Z AUTO 14006KT 10SM CLR 10/07 A3016 RMK AO2
KOKV 200115Z AUTO 27004KT 10SM CLR 12/07 A3016 RMK AO2
KOKV 200055Z AUTO 28003KT 10SM CLR 12/07 A3016 RMK AO2
KOKV 200035Z AUTO 00000KT 10SM CLR 14/08 A3016 RMK AO2
KOKV 200015Z AUTO 24003KT 10SM CLR 13/08 A3016 RMK AO2
KOKV 192355Z AUTO 29004KT 10SM CLR 12/07 A3016 RMK AO2
KOKV 192335Z AUTO 00000KT 10SM CLR 15/08 A3015 RMK AO2
KOKV 192315Z AUTO 18004KT 10SM CLR 15/08 A3014 RMK AO2
KOKV 192255Z AUTO 18003KT 10SM CLR 16/08 A3014 RMK AO2
KOKV 192235Z AUTO 17003KT 10SM CLR 16/08 A3013 RMK AO2
KOKV 192215Z AUTO 16003KT 10SM CLR 19/08 A3013 RMK AO2
KOKV 192155Z AUTO 00000KT 10SM CLR 20/08 A3013 RMK AO2
KOKV 192135Z AUTO 17005KT 10SM CLR 21/07 A3013 RMK AO2
KOKV 192115Z AUTO 19004KT 10SM CLR 22/07 A3013 RMK AO2
KOKV 192055Z AUTO 21003KT 10SM CLR 22/07 A3014 RMK AO2